createdAt,value
2023-04-01T00:01:34.055Z,3.06
2023-04-01T00:05:08.386Z,3.19
2023-04-01T00:08:11.710Z,3.21
2023-04-01T00:11:27.891Z,3.16
2023-04-01T00:15:07.667Z,3.12
2023-04-01T00:18:28.190Z,3.03
2023-04-01T00:22:05.781Z,2.97
2023-04-01T00:25:30.041Z,2.79
2023-04-01T00:28:58.069Z,2.59
2023-04-01T00:32:47.454Z,2.47
2023-04-01T00:36:37.481Z,2.43
2023-04-01T00:39:32.464Z,2.45
2023-04-01T00:42:25.631Z,2.42
2023-04-01T00:45:42.314Z,2.36
2023-04-01T00:48:44.778Z,2.25
2023-04-01T00:51:47.687Z,2.14
2023-04-01T00:54:43.445Z,2.10
2023-04-01T00:57:41.298Z,2.04
2023-04-01T01:00:45.272Z,2.00
2023-04-01T01:03:56.469Z,1.99
2023-04-01T01:07:22.265Z,1.94
2023-04-01T01:11:04.852Z,1.86
2023-04-01T01:14:57.804Z,1.81
2023-04-01T01:18:37.230Z,1.74
2023-04-01T01:21:58.643Z,1.70
2023-04-01T01:25:43.613Z,1.65
2023-04-01T01:29:16.070Z,1.65
2023-04-01T01:32:47.088Z,1.64
2023-04-01T01:36:05.347Z,1.66
2023-04-01T01:43:24.485Z,1.86
2023-04-01T01:46:56.160Z,1.90
2023-04-01T01:50:17.579Z,1.88
2023-04-01T01:53:44.874Z,1.83
2023-04-01T01:57:23.532Z,1.90
2023-04-01T02:00:49.659Z,1.87
2023-04-01T02:04:24.804Z,1.88
2023-04-01T02:07:47.642Z,1.95
2023-04-01T02:11:21.105Z,2.03
2023-04-01T02:14:36.820Z,2.15
2023-04-01T02:17:42.955Z,2.34
2023-04-01T02:20:59.361Z,2.33
2023-04-01T02:24:14.040Z,2.32
2023-04-01T02:27:42.333Z,2.28
2023-04-01T02:31:01.307Z,2.19
2023-04-01T02:34:34.319Z,2.23
2023-04-01T02:37:54.621Z,2.18
2023-04-01T02:41:20.915Z,2.19
2023-04-01T02:44:42.761Z,2.20
2023-04-01T02:48:29.327Z,2.22
2023-04-01T02:51:41.156Z,2.19
2023-04-01T02:55:03.128Z,2.13
2023-04-01T02:58:42.350Z,2.05
2023-04-01T03:01:59.020Z,1.99
2023-04-01T03:05:32.020Z,1.97
2023-04-01T03:08:14.856Z,1.94
2023-04-01T03:11:06.631Z,1.91
2023-04-01T03:14:03.765Z,1.87
2023-04-01T03:16:50.027Z,1.74
2023-04-01T03:19:46.735Z,1.65
2023-04-01T03:22:50.161Z,1.61
2023-04-01T03:26:11.228Z,1.61
2023-04-01T03:29:43.063Z,1.58
2023-04-01T03:33:01.781Z,1.57
2023-04-01T03:36:18.193Z,1.59
2023-04-01T03:39:31.428Z,1.57
2023-04-01T03:43:01.790Z,1.58
2023-04-01T03:46:15.613Z,1.61
2023-04-01T03:49:40.614Z,1.71
2023-04-01T03:53:04.966Z,1.73
2023-04-01T03:55:41.602Z,1.79
2023-04-01T03:58:35.125Z,1.90
2023-04-01T04:01:49.609Z,2.00
2023-04-01T04:04:36.955Z,2.12
2023-04-01T04:07:54.335Z,2.22
2023-04-01T04:10:54.312Z,2.27
2023-04-01T04:14:02.938Z,2.41
2023-04-01T04:17:05.334Z,2.48
2023-04-01T04:20:29.818Z,2.53
2023-04-01T04:23:34.696Z,2.64
2023-04-01T04:27:10.717Z,2.79
2023-04-01T04:30:42.072Z,2.96
2023-04-01T04:33:59.878Z,3.17
2023-04-01T04:37:37.815Z,3.26
2023-04-01T04:41:27.169Z,3.36
2023-04-01T04:45:07.486Z,3.50
2023-04-01T04:48:34.155Z,3.60
2023-04-01T04:51:37.976Z,3.79
2023-04-01T04:55:17.745Z,3.91
2023-04-01T04:59:07.264Z,4.07
2023-04-01T05:02:42.067Z,4.28
2023-04-01T05:05:48.365Z,4.50
2023-04-01T05:08:42.797Z,4.66
2023-04-01T05:12:31.856Z,4.91
2023-04-01T05:16:12.806Z,5.12
2023-04-01T05:19:54.787Z,5.41
2023-04-01T05:23:22.789Z,5.67
2023-04-01T05:26:57.331Z,5.85
2023-04-01T05:30:45.510Z,6.12
2023-04-01T05:34:36.357Z,6.31
2023-04-01T05:37:58.245Z,6.52
2023-04-01T05:41:40.061Z,6.60
2023-04-01T05:44:57.891Z,6.73
2023-04-01T05:48:53.045Z,6.89
2023-04-01T05:55:51.310Z,7.62
2023-04-01T05:58:19.494Z,7.90
2023-04-01T06:00:56.012Z,8.19
2023-04-01T06:03:31.105Z,8.50
2023-04-01T06:06:00.142Z,8.89
2023-04-01T06:08:31.153Z,9.51
2023-04-01T06:11:14.752Z,10.13
2023-04-01T06:14:11.368Z,10.57
2023-04-01T06:17:08.532Z,10.98
2023-04-01T06:19:56.630Z,11.45
2023-04-01T06:22:40.320Z,11.81
2023-04-01T06:25:40.074Z,12.09
2023-04-01T06:28:50.295Z,12.20
2023-04-01T06:31:22.087Z,12.23
2023-04-01T06:34:02.848Z,12.23
2023-04-01T06:36:43.961Z,12.23
2023-04-01T06:39:50.105Z,12.26
2023-04-01T06:42:24.601Z,12.29
2023-04-01T06:45:10.541Z,12.26
2023-04-01T06:48:44.306Z,12.20
2023-04-01T06:52:22.412Z,12.16
2023-04-01T06:55:49.839Z,11.91
2023-04-01T06:58:59.735Z,11.79
2023-04-01T07:01:31.032Z,11.61
2023-04-01T07:04:12.579Z,11.50
2023-04-01T07:06:48.453Z,11.44
2023-04-01T07:09:41.361Z,11.37
2023-04-01T07:12:49.250Z,11.25
2023-04-01T07:15:42.247Z,11.15
2023-04-01T07:18:30.961Z,11.08
2023-04-01T07:21:00.634Z,11.03
2023-04-01T07:23:43.620Z,10.99
2023-04-01T07:26:26.411Z,10.97
2023-04-01T07:29:15.608Z,10.95
2023-04-01T07:32:20.897Z,10.95
2023-04-01T07:35:09.503Z,10.96
2023-04-01T07:37:51.458Z,10.97
2023-04-01T07:40:40.671Z,10.97
2023-04-01T07:43:12.028Z,10.98
2023-04-01T07:45:54.569Z,10.98
2023-04-01T07:48:43.073Z,10.99
2023-04-01T07:52:03.052Z,10.99
2023-04-01T07:55:01.608Z,11.00
2023-04-01T07:57:57.266Z,10.99
2023-04-01T08:00:33.156Z,10.99
2023-04-01T08:03:29.085Z,11.02
2023-04-01T08:06:10.446Z,11.07
2023-04-01T08:08:58.529Z,11.09
2023-04-01T08:11:54.547Z,11.11
2023-04-01T08:15:37.672Z,11.12
2023-04-01T08:18:51.023Z,11.16
2023-04-01T08:21:26.661Z,11.19
2023-04-01T08:23:58.716Z,11.19
2023-04-01T08:26:33.208Z,11.20
2023-04-01T08:29:10.565Z,11.14
2023-04-01T08:31:50.085Z,11.10
2023-04-01T08:34:27.337Z,11.08
2023-04-01T08:37:10.207Z,11.08
2023-04-01T08:39:52.009Z,11.09
2023-04-01T08:42:45.997Z,11.13
2023-04-01T08:45:16.429Z,11.18
2023-04-01T08:48:09.841Z,11.25
2023-04-01T08:51:15.432Z,11.31
2023-04-01T08:54:44.602Z,11.38
2023-04-01T08:57:28.400Z,11.46
2023-04-01T09:00:45.513Z,11.50
2023-04-01T09:03:48.499Z,11.53
2023-04-01T09:06:38.692Z,11.56
2023-04-01T09:09:38.634Z,11.58
2023-04-01T09:12:38.794Z,11.57
2023-04-01T09:15:37.937Z,11.58
2023-04-01T09:18:49.060Z,11.59
2023-04-01T09:21:38.424Z,11.58
2023-04-01T09:24:14.340Z,11.58
2023-04-01T09:26:48.501Z,11.59
2023-04-01T09:29:19.622Z,11.59
2023-04-01T09:32:13.735Z,11.60
2023-04-01T09:35:25.735Z,11.58
2023-04-01T09:38:14.633Z,11.56
2023-04-01T09:40:43.474Z,11.53
2023-04-01T09:43:41.093Z,11.55
2023-04-01T09:46:34.178Z,11.57
2023-04-01T09:49:08.387Z,11.59
2023-04-01T09:51:41.096Z,11.62
2023-04-01T09:54:24.751Z,11.65
2023-04-01T09:56:59.079Z,11.72
2023-04-01T10:00:06.232Z,11.80
2023-04-01T10:03:30.717Z,11.94
2023-04-01T10:06:14.519Z,12.09
2023-04-01T10:09:01.665Z,12.17
2023-04-01T10:11:53.910Z,12.25
2023-04-01T10:15:01.661Z,12.35
2023-04-01T10:17:39.004Z,12.47
2023-04-01T10:20:08.015Z,12.54
2023-04-01T10:23:34.635Z,12.60
2023-04-01T10:26:19.613Z,12.70
2023-04-01T10:29:25.473Z,12.72
2023-04-01T10:32:17.404Z,12.80
2023-04-01T10:34:49.360Z,12.86
2023-04-01T10:38:05.517Z,12.90
2023-04-01T10:40:33.983Z,12.91
2023-04-01T10:43:20.974Z,12.91
2023-04-01T10:46:10.593Z,12.87
2023-04-01T10:48:53.842Z,12.84
2023-04-01T10:51:50.153Z,12.82
2023-04-01T10:54:38.262Z,12.75
2023-04-01T10:57:51.798Z,12.70
2023-04-01T11:01:21.858Z,12.68
2023-04-01T11:04:44.141Z,12.72
2023-04-01T11:08:02.844Z,12.78
2023-04-01T11:11:02.838Z,12.80
2023-04-01T11:13:49.974Z,12.87
2023-04-01T11:16:52.640Z,12.93
2023-04-01T11:19:38.289Z,12.95
2023-04-01T11:22:31.040Z,12.96
2023-04-01T11:25:22.474Z,12.98
2023-04-01T11:28:35.637Z,13.03
2023-04-01T11:31:22.932Z,13.12
2023-04-01T11:34:07.285Z,13.14
2023-04-01T11:36:41.857Z,13.12
2023-04-01T11:39:22.938Z,13.14
2023-04-01T11:42:36.100Z,13.32
2023-04-01T11:45:47.980Z,13.56
2023-04-01T11:48:35.097Z,13.67
2023-04-01T11:52:02.921Z,13.74
2023-04-01T11:55:12.538Z,13.82
2023-04-01T11:58:18.610Z,13.92
2023-04-01T12:01:03.552Z,13.95
2023-04-01T12:04:03.028Z,13.98
2023-04-01T12:07:00.407Z,13.95
2023-04-01T12:09:58.040Z,13.99
2023-04-01T12:12:33.857Z,14.03
2023-04-01T12:15:55.669Z,14.04
2023-04-01T12:18:23.658Z,13.98
2023-04-01T12:21:10.256Z,13.97
2023-04-01T12:24:05.625Z,13.98
2023-04-01T12:26:49.054Z,14.01
2023-04-01T12:29:38.674Z,14.01
2023-04-01T12:32:44.564Z,14.02
2023-04-01T12:35:38.622Z,14.00
2023-04-01T12:38:20.418Z,13.95
2023-04-01T12:40:49.704Z,13.93
2023-04-01T12:43:36.865Z,13.91
2023-04-01T12:46:38.601Z,14.01
2023-04-01T12:49:46.196Z,14.09
2023-04-01T12:52:37.590Z,14.13
2023-04-01T12:55:40.534Z,14.19
2023-04-01T12:58:42.581Z,14.22
2023-04-01T13:01:44.702Z,14.24
2023-04-01T13:04:36.968Z,14.31
2023-04-01T13:07:08.039Z,14.39
2023-04-01T13:09:51.991Z,14.46
2023-04-01T13:12:20.613Z,14.50
2023-04-01T13:15:10.029Z,14.56
2023-04-01T13:17:45.249Z,14.61
2023-04-01T13:20:20.922Z,14.67
2023-04-01T13:23:13.276Z,14.74
2023-04-01T13:26:14.463Z,14.79
2023-04-01T13:29:16.638Z,14.90
2023-04-01T13:32:43.352Z,14.93
2023-04-01T13:35:18.397Z,14.94
2023-04-01T13:38:21.933Z,14.92
2023-04-01T13:41:03.697Z,14.84
2023-04-01T13:43:40.692Z,14.79
2023-04-01T13:46:40.047Z,14.80
2023-04-01T13:49:59.931Z,14.77
2023-04-01T13:52:59.988Z,14.72
2023-04-01T13:55:41.288Z,14.74
2023-04-01T13:58:25.148Z,14.74
2023-04-01T14:01:27.628Z,14.70
2023-04-01T14:04:04.749Z,14.64
2023-04-01T14:07:01.905Z,14.62
2023-04-01T14:09:39.148Z,14.60
2023-04-01T14:12:17.015Z,14.59
2023-04-01T14:14:51.081Z,14.58
2023-04-01T14:17:27.893Z,14.55
2023-04-01T14:20:08.492Z,14.49
2023-04-01T14:22:45.547Z,14.45
2023-04-01T14:25:42.583Z,14.40
2023-04-01T14:28:26.612Z,14.35
2023-04-01T14:31:00.781Z,14.31
2023-04-01T14:33:47.128Z,14.27
2023-04-01T14:36:27.254Z,14.21
2023-04-01T14:39:13.747Z,14.19
2023-04-01T14:42:22.041Z,14.18
2023-04-01T14:44:58.902Z,14.09
2023-04-01T14:47:36.005Z,14.03
2023-04-01T14:50:13.362Z,13.97
2023-04-01T14:52:47.816Z,13.96
2023-04-01T14:55:32.650Z,13.90
2023-04-01T14:58:16.235Z,13.86
2023-04-01T15:00:47.244Z,13.81
2023-04-01T15:03:25.120Z,13.74
2023-04-01T15:06:34.418Z,13.74
2023-04-01T15:09:22.250Z,13.70
2023-04-01T15:11:59.267Z,13.68
2023-04-01T15:14:42.560Z,13.65
2023-04-01T15:17:35.331Z,13.64
2023-04-01T15:20:44.935Z,13.61
2023-04-01T15:23:55.118Z,13.59
2023-04-01T15:26:28.690Z,13.54
2023-04-01T15:29:20.546Z,13.50
2023-04-01T15:32:05.052Z,13.48
2023-04-01T15:34:55.018Z,13.44
2023-04-01T15:37:35.356Z,13.41
2023-04-01T15:40:25.093Z,13.39
2023-04-01T15:43:37.599Z,13.38
2023-04-01T15:46:28.931Z,13.35
2023-04-01T15:49:00.682Z,13.33
2023-04-01T15:52:15.447Z,13.33
2023-04-01T15:54:49.446Z,13.32
2023-04-01T15:57:29.660Z,13.32
2023-04-01T16:00:27.800Z,13.30
2023-04-01T16:03:11.476Z,13.28
2023-04-01T16:05:50.434Z,13.25
2023-04-01T16:08:36.639Z,13.24
2023-04-01T16:11:24.133Z,13.20
2023-04-01T16:14:24.378Z,13.15
2023-04-01T16:17:17.779Z,13.13
2023-04-01T16:19:54.829Z,13.09
2023-04-01T16:22:35.243Z,13.04
2023-04-01T16:25:30.396Z,13.01
2023-04-01T16:28:24.735Z,12.96
2023-04-01T16:31:12.111Z,12.91
2023-04-01T16:33:59.925Z,12.88
2023-04-01T16:36:46.167Z,12.78
2023-04-01T16:39:44.705Z,12.73
2023-04-01T16:42:50.849Z,12.63
2023-04-01T16:45:31.148Z,12.59
2023-04-01T16:48:11.397Z,12.57
2023-04-01T16:51:04.319Z,12.54
2023-04-01T16:53:44.808Z,12.46
2023-04-01T16:56:23.293Z,12.43
2023-04-01T16:59:39.765Z,12.39
2023-04-01T17:02:07.818Z,12.34
2023-04-01T17:04:44.711Z,12.29
2023-04-01T17:07:41.157Z,12.22
2023-04-01T17:10:25.176Z,12.16
2023-04-01T17:13:22.868Z,12.11
2023-04-01T17:16:32.546Z,12.05
2023-04-01T17:19:22.205Z,11.98
2023-04-01T17:22:24.515Z,11.93
2023-04-01T17:25:11.290Z,11.90
2023-04-01T17:27:57.235Z,11.87
2023-04-01T17:30:49.786Z,11.83
2023-04-01T17:33:32.545Z,11.83
2023-04-01T17:36:31.234Z,11.83
2023-04-01T17:39:14.540Z,11.83
2023-04-01T17:41:48.424Z,11.86
2023-04-01T17:44:47.417Z,11.86
2023-04-01T17:47:49.618Z,11.90
2023-04-01T17:50:25.148Z,11.93
2023-04-01T17:53:31.986Z,11.94
2023-04-01T17:56:31.323Z,11.96
2023-04-01T17:59:17.154Z,11.93
2023-04-01T18:02:03.587Z,11.90
2023-04-01T18:04:45.385Z,11.92
2023-04-01T18:07:16.439Z,11.86
2023-04-01T18:10:15.980Z,11.86
2023-04-01T18:13:09.619Z,11.86
2023-04-01T18:15:37.827Z,11.85
2023-04-01T18:18:39.185Z,11.82
2023-04-01T18:21:19.635Z,11.77
2023-04-01T18:24:31.827Z,11.75
2023-04-01T18:27:25.204Z,11.72
2023-04-01T18:30:00.372Z,11.66
2023-04-01T18:32:42.050Z,11.57
2023-04-01T18:35:31.385Z,11.48
2023-04-01T18:38:25.587Z,11.43
2023-04-01T18:41:15.330Z,11.38
2023-04-01T18:44:17.539Z,11.33
2023-04-01T18:46:54.733Z,11.28
2023-04-01T18:49:31.693Z,11.23
2023-04-01T18:52:39.067Z,11.15
2023-04-01T18:55:22.321Z,11.07
2023-04-01T18:57:57.834Z,11.00
2023-04-01T19:00:37.105Z,10.90
2023-04-01T19:03:28.189Z,10.83
2023-04-01T19:06:01.837Z,10.77
2023-04-01T19:08:32.236Z,10.72
2023-04-01T19:11:06.368Z,10.67
2023-04-01T19:13:37.606Z,10.62
2023-04-01T19:16:27.883Z,10.58
2023-04-01T19:19:12.243Z,10.56
2023-04-01T19:21:57.726Z,10.51
2023-04-01T19:24:47.600Z,10.50
2023-04-01T19:27:36.048Z,10.50
2023-04-01T19:30:10.643Z,10.47
2023-04-01T19:33:25.098Z,10.45
2023-04-01T19:35:59.475Z,10.48
2023-04-01T19:38:43.126Z,10.45
2023-04-01T19:41:36.507Z,10.47
2023-04-01T19:44:24.564Z,10.50
2023-04-01T19:47:16.846Z,10.42
2023-04-01T19:50:01.594Z,10.39
2023-04-01T19:52:37.113Z,10.40
2023-04-01T19:55:12.782Z,10.37
2023-04-01T19:58:06.849Z,10.32
2023-04-01T20:00:51.333Z,10.28
2023-04-01T20:03:51.509Z,10.29
2023-04-01T20:06:49.352Z,10.31
2023-04-01T20:09:48.627Z,10.27
2023-04-01T20:12:16.967Z,10.31
2023-04-01T20:14:51.328Z,10.36
2023-04-01T20:17:44.318Z,10.41
2023-04-01T20:20:12.402Z,10.46
2023-04-01T20:22:46.784Z,10.52
2023-04-01T20:25:31.804Z,10.54
2023-04-01T20:27:59.881Z,10.53
2023-04-01T20:31:05.852Z,10.54
2023-04-01T20:33:53.284Z,10.61
2023-04-01T20:36:27.885Z,10.65
2023-04-01T20:39:12.562Z,10.68
2023-04-01T20:41:53.033Z,10.70
2023-04-01T20:44:46.646Z,10.69
2023-04-01T20:47:52.891Z,10.70
2023-04-01T20:50:30.736Z,10.65
2023-04-01T20:53:23.931Z,10.59
2023-04-01T20:56:18.134Z,10.52
2023-04-01T20:58:52.020Z,10.49
2023-04-01T21:01:25.987Z,10.46
2023-04-01T21:04:13.065Z,10.42
2023-04-01T21:07:03.130Z,10.38
2023-04-01T21:09:42.751Z,10.35
2023-04-01T21:12:42.281Z,10.33
2023-04-01T21:15:34.727Z,10.30
2023-04-01T21:18:25.634Z,10.26
2023-04-01T21:21:22.061Z,10.25
2023-04-01T21:23:56.465Z,10.18
2023-04-01T21:26:54.623Z,10.18
2023-04-01T21:29:38.210Z,10.21
2023-04-01T21:32:33.515Z,10.26
2023-04-01T21:35:26.738Z,10.32
2023-04-01T21:38:17.066Z,10.39
2023-04-01T21:40:59.373Z,10.42
2023-04-01T21:43:41.627Z,10.46
2023-04-01T21:46:33.074Z,10.52
2023-04-01T21:49:39.045Z,10.60
2023-04-01T21:52:26.164Z,10.65
2023-04-01T21:55:12.357Z,10.59
2023-04-01T21:57:46.925Z,10.46
2023-04-01T22:00:18.787Z,10.39
2023-04-01T22:03:26.779Z,10.41
2023-04-01T22:06:37.893Z,10.42
2023-04-01T22:09:44.501Z,10.45
2023-04-01T22:12:32.450Z,10.49
2023-04-01T22:15:26.614Z,10.52
2023-04-01T22:18:15.193Z,10.56
2023-04-01T22:21:22.525Z,10.55
2023-04-01T22:24:27.034Z,10.56
2023-04-01T22:27:04.449Z,10.55
2023-04-01T22:29:48.978Z,10.48
2023-04-01T22:32:25.883Z,10.38
2023-04-01T22:35:12.623Z,10.22
2023-04-01T22:37:46.487Z,10.22
2023-04-01T22:40:46.977Z,10.17
2023-04-01T22:43:32.204Z,10.15
2023-04-01T22:46:06.846Z,10.09
2023-04-01T22:48:50.674Z,10.07
2023-04-01T22:51:56.762Z,10.05
2023-04-01T22:54:43.368Z,10.00
2023-04-01T22:57:48.811Z,9.96
2023-04-01T23:00:29.194Z,9.91
2023-04-01T23:03:03.262Z,9.88
2023-04-01T23:05:33.136Z,9.85
2023-04-01T23:08:39.469Z,9.84
2023-04-01T23:11:32.994Z,9.83
2023-04-01T23:14:05.270Z,9.83
2023-04-01T23:16:38.944Z,9.81
2023-04-01T23:19:22.407Z,9.76
2023-04-01T23:22:06.968Z,9.70
2023-04-01T23:24:44.159Z,9.66
2023-04-01T23:27:17.956Z,9.66
2023-04-01T23:29:46.199Z,9.69
2023-04-01T23:32:18.296Z,9.71
2023-04-01T23:34:52.366Z,9.73
2023-04-01T23:37:22.349Z,9.75
2023-04-01T23:39:54.337Z,9.78
2023-04-01T23:42:22.434Z,9.83
2023-04-01T23:44:54.985Z,9.90
2023-04-01T23:47:27.704Z,9.98
2023-04-01T23:50:04.545Z,10.03
2023-04-01T23:52:39.967Z,10.05
2023-04-01T23:55:27.201Z,10.08
2023-04-01T23:58:27.464Z,10.15
